sensor_id;sensor_type;location;lat;lon;timestamp;P1;durP1;ratioP1;P2;durP2;ratioP2
9892;SDS011;4985;49.092;8.542;2023-11-19T00:00:34;2.83;;;1.67;;
9892;SDS011;4985;49.092;8.542;2023-11-19T00:02:59;1.80;;;1.60;;
9892;SDS011;4985;49.092;8.542;2023-11-19T00:05:24;2.57;;;1.33;;
9892;SDS011;4985;49.092;8.542;2023-11-19T00:07:50;1.67;;;1.27;;
9892;SDS011;4985;49.092;8.542;2023-11-19T00:10:16;2.33;;;1.63;;
9892;SDS011;4985;49.092;8.542;2023-11-19T00:12:45;2.03;;;1.47;;
9892;SDS011;4985;49.092;8.542;2023-11-19T00:15:13;1.87;;;1.47;;
9892;SDS011;4985;49.092;8.542;2023-11-19T00:17:39;2.73;;;1.53;;
9892;SDS011;4985;49.092;8.542;2023-11-19T00:20:12;1.60;;;1.50;;
9892;SDS011;4985;49.092;8.542;2023-11-19T00:22:38;2.10;;;1.37;;
9892;SDS011;4985;49.092;8.542;2023-11-19T00:25:04;2.80;;;1.70;;
9892;SDS011;4985;49.092;8.542;2023-11-19T00:27:30;4.63;;;1.50;;
9892;SDS011;4985;49.092;8.542;2023-11-19T00:29:56;2.00;;;1.70;;
9892;SDS011;4985;49.092;8.542;2023-11-19T00:32:21;2.70;;;1.67;;
9892;SDS011;4985;49.092;8.542;2023-11-19T00:34:47;3.13;;;1.70;;
9892;SDS011;4985;49.092;8.542;2023-11-19T00:37:13;1.77;;;1.40;;
9892;SDS011;4985;49.092;8.542;2023-11-19T00:39:38;1.70;;;1.57;;
9892;SDS011;4985;49.092;8.542;2023-11-19T00:42:04;1.50;;;1.40;;
9892;SDS011;4985;49.092;8.542;2023-11-19T00:44:30;1.63;;;1.50;;
9892;SDS011;4985;49.092;8.542;2023-11-19T00:46:55;3.73;;;2.10;;
9892;SDS011;4985;49.092;8.542;2023-11-19T00:49:21;2.53;;;1.63;;
9892;SDS011;4985;49.092;8.542;2023-11-19T00:51:46;2.83;;;1.73;;
9892;SDS011;4985;49.092;8.542;2023-11-19T00:54:11;2.30;;;1.57;;
9892;SDS011;4985;49.092;8.542;2023-11-19T00:56:36;1.63;;;1.40;;
9892;SDS011;4985;49.092;8.542;2023-11-19T00:59:02;2.77;;;1.43;;
9892;SDS011;4985;49.092;8.542;2023-11-19T01:01:28;1.93;;;1.73;;
9892;SDS011;4985;49.092;8.542;2023-11-19T01:03:54;2.20;;;1.50;;
9892;SDS011;4985;49.092;8.542;2023-11-19T01:06:31;1.97;;;1.53;;
9892;SDS011;4985;49.092;8.542;2023-11-19T01:08:57;2.23;;;1.50;;
9892;SDS011;4985;49.092;8.542;2023-11-19T01:11:23;1.87;;;1.60;;
9892;SDS011;4985;49.092;8.542;2023-11-19T01:13:49;3.30;;;1.57;;
9892;SDS011;4985;49.092;8.542;2023-11-19T01:16:16;1.97;;;1.60;;
9892;SDS011;4985;49.092;8.542;2023-11-19T01:18:41;1.40;;;1.27;;
9892;SDS011;4985;49.092;8.542;2023-11-19T01:21:07;2.40;;;1.30;;
9892;SDS011;4985;49.092;8.542;2023-11-19T01:23:33;4.37;;;1.40;;
9892;SDS011;4985;49.092;8.542;2023-11-19T01:25:59;1.97;;;1.30;;
9892;SDS011;4985;49.092;8.542;2023-11-19T01:28:24;1.57;;;1.20;;
9892;SDS011;4985;49.092;8.542;2023-11-19T01:30:53;0.90;;;0.90;;
9892;SDS011;4985;49.092;8.542;2023-11-19T01:33:18;1.53;;;1.03;;
9892;SDS011;4985;49.092;8.542;2023-11-19T01:35:44;0.93;;;0.90;;
9892;SDS011;4985;49.092;8.542;2023-11-19T01:38:09;1.60;;;1.20;;
9892;SDS011;4985;49.092;8.542;2023-11-19T01:40:34;1.30;;;1.20;;
9892;SDS011;4985;49.092;8.542;2023-11-19T01:43:01;0.83;;;0.80;;
9892;SDS011;4985;49.092;8.542;2023-11-19T01:45:27;0.80;;;0.80;;
9892;SDS011;4985;49.092;8.542;2023-11-19T01:47:55;0.60;;;0.60;;
9892;SDS011;4985;49.092;8.542;2023-11-19T01:50:21;0.50;;;0.50;;
9892;SDS011;4985;49.092;8.542;2023-11-19T01:52:49;0.93;;;0.70;;
9892;SDS011;4985;49.092;8.542;2023-11-19T01:55:17;2.53;;;0.80;;
9892;SDS011;4985;49.092;8.542;2023-11-19T01:57:44;0.50;;;0.50;;
9892;SDS011;4985;49.092;8.542;2023-11-19T02:00:11;0.60;;;0.60;;
9892;SDS011;4985;49.092;8.542;2023-11-19T02:02:38;0.50;;;0.50;;
9892;SDS011;4985;49.092;8.542;2023-11-19T02:05:05;2.17;;;0.70;;
9892;SDS011;4985;49.092;8.542;2023-11-19T02:07:31;0.53;;;0.53;;
9892;SDS011;4985;49.092;8.542;2023-11-19T02:09:57;0.60;;;0.60;;
9892;SDS011;4985;49.092;8.542;2023-11-19T02:12:25;1.37;;;0.60;;
9892;SDS011;4985;49.092;8.542;2023-11-19T02:14:53;0.50;;;0.50;;
9892;SDS011;4985;49.092;8.542;2023-11-19T02:17:51;0.53;;;0.53;;
9892;SDS011;4985;49.092;8.542;2023-11-19T02:20:10;2.10;;;0.70;;
9892;SDS011;4985;49.092;8.542;2023-11-19T02:22:38;2.40;;;0.60;;
9892;SDS011;4985;49.092;8.542;2023-11-19T02:25:07;0.50;;;0.50;;
9892;SDS011;4985;49.092;8.542;2023-11-19T02:27:56;0.60;;;0.60;;
9892;SDS011;4985;49.092;8.542;2023-11-19T02:30:23;0.60;;;0.60;;
9892;SDS011;4985;49.092;8.542;2023-11-19T02:32:52;1.50;;;0.80;;
9892;SDS011;4985;49.092;8.542;2023-11-19T02:35:18;0.80;;;0.80;;
9892;SDS011;4985;49.092;8.542;2023-11-19T02:37:43;1.13;;;0.70;;
9892;SDS011;4985;49.092;8.542;2023-11-19T02:40:10;1.33;;;0.73;;
9892;SDS011;4985;49.092;8.542;2023-11-19T02:42:35;0.60;;;0.60;;
9892;SDS011;4985;49.092;8.542;2023-11-19T02:45:01;0.57;;;0.57;;
9892;SDS011;4985;49.092;8.542;2023-11-19T02:47:27;0.60;;;0.60;;
9892;SDS011;4985;49.092;8.542;2023-11-19T02:49:55;0.77;;;0.70;;
9892;SDS011;4985;49.092;8.542;2023-11-19T02:52:20;0.63;;;0.60;;
9892;SDS011;4985;49.092;8.542;2023-11-19T02:54:46;0.50;;;0.50;;
9892;SDS011;4985;49.092;8.542;2023-11-19T02:57:11;1.30;;;0.70;;
9892;SDS011;4985;49.092;8.542;2023-11-19T02:59:38;0.97;;;0.63;;
9892;SDS011;4985;49.092;8.542;2023-11-19T03:02:06;0.70;;;0.70;;
9892;SDS011;4985;49.092;8.542;2023-11-19T03:04:32;0.50;;;0.50;;
9892;SDS011;4985;49.092;8.542;2023-11-19T03:06:58;0.53;;;0.53;;
9892;SDS011;4985;49.092;8.542;2023-11-19T03:09:23;0.60;;;0.60;;
9892;SDS011;4985;49.092;8.542;2023-11-19T03:11:49;0.60;;;0.60;;
9892;SDS011;4985;49.092;8.542;2023-11-19T03:14:15;0.70;;;0.60;;
9892;SDS011;4985;49.092;8.542;2023-11-19T03:16:40;0.60;;;0.60;;
9892;SDS011;4985;49.092;8.542;2023-11-19T03:19:05;1.07;;;0.60;;
9892;SDS011;4985;49.092;8.542;2023-11-19T03:21:31;0.60;;;0.60;;
9892;SDS011;4985;49.092;8.542;2023-11-19T03:23:57;1.27;;;0.60;;
9892;SDS011;4985;49.092;8.542;2023-11-19T03:26:25;0.60;;;0.60;;
9892;SDS011;4985;49.092;8.542;2023-11-19T03:28:53;0.50;;;0.50;;
9892;SDS011;4985;49.092;8.542;2023-11-19T03:31:19;1.03;;;0.60;;
9892;SDS011;4985;49.092;8.542;2023-11-19T03:33:45;0.60;;;0.60;;
9892;SDS011;4985;49.092;8.542;2023-11-19T03:36:11;1.87;;;1.07;;
9892;SDS011;4985;49.092;8.542;2023-11-19T03:38:37;1.40;;;0.70;;
9892;SDS011;4985;49.092;8.542;2023-11-19T03:41:10;0.70;;;0.70;;
9892;SDS011;4985;49.092;8.542;2023-11-19T03:43:36;0.70;;;0.70;;
9892;SDS011;4985;49.092;8.542;2023-11-19T03:46:02;0.60;;;0.60;;
9892;SDS011;4985;49.092;8.542;2023-11-19T03:48:27;0.60;;;0.60;;
9892;SDS011;4985;49.092;8.542;2023-11-19T03:50:52;0.53;;;0.53;;
9892;SDS011;4985;49.092;8.542;2023-11-19T03:53:18;0.60;;;0.60;;
9892;SDS011;4985;49.092;8.542;2023-11-19T03:55:43;0.60;;;0.60;;
9892;SDS011;4985;49.092;8.542;2023-11-19T03:58:09;0.50;;;0.50;;
9892;SDS011;4985;49.092;8.542;2023-11-19T04:00:34;0.60;;;0.60;;
9892;SDS011;4985;49.092;8.542;2023-11-19T04:03:00;0.73;;;0.63;;
9892;SDS011;4985;49.092;8.542;2023-11-19T04:05:25;0.53;;;0.53;;
9892;SDS011;4985;49.092;8.542;2023-11-19T04:07:51;0.50;;;0.50;;
9892;SDS011;4985;49.092;8.542;2023-11-19T04:10:16;0.60;;;0.60;;
9892;SDS011;4985;49.092;8.542;2023-11-19T04:12:42;0.67;;;0.50;;
9892;SDS011;4985;49.092;8.542;2023-11-19T04:15:07;0.60;;;0.50;;
9892;SDS011;4985;49.092;8.542;2023-11-19T04:17:33;0.50;;;0.50;;
9892;SDS011;4985;49.092;8.542;2023-11-19T04:19:59;0.87;;;0.60;;
9892;SDS011;4985;49.092;8.542;2023-11-19T04:22:24;0.67;;;0.60;;
9892;SDS011;4985;49.092;8.542;2023-11-19T04:24:49;0.60;;;0.60;;
9892;SDS011;4985;49.092;8.542;2023-11-19T04:27:15;0.53;;;0.53;;
9892;SDS011;4985;49.092;8.542;2023-11-19T04:29:40;0.77;;;0.77;;
9892;SDS011;4985;49.092;8.542;2023-11-19T04:32:06;0.50;;;0.50;;
9892;SDS011;4985;49.092;8.542;2023-11-19T04:34:32;0.60;;;0.60;;
9892;SDS011;4985;49.092;8.542;2023-11-19T04:36:57;0.50;;;0.50;;
9892;SDS011;4985;49.092;8.542;2023-11-19T04:39:26;0.60;;;0.60;;
9892;SDS011;4985;49.092;8.542;2023-11-19T04:41:51;0.50;;;0.50;;
9892;SDS011;4985;49.092;8.542;2023-11-19T04:44:20;0.60;;;0.60;;
9892;SDS011;4985;49.092;8.542;2023-11-19T04:46:45;0.70;;;0.60;;
9892;SDS011;4985;49.092;8.542;2023-11-19T04:49:12;0.93;;;0.60;;
9892;SDS011;4985;49.092;8.542;2023-11-19T04:51:42;0.57;;;0.57;;
9892;SDS011;4985;49.092;8.542;2023-11-19T04:54:09;0.63;;;0.60;;
9892;SDS011;4985;49.092;8.542;2023-11-19T04:56:35;0.80;;;0.80;;
9892;SDS011;4985;49.092;8.542;2023-11-19T04:59:02;0.60;;;0.60;;
9892;SDS011;4985;49.092;8.542;2023-11-19T05:01:27;1.10;;;0.60;;
9892;SDS011;4985;49.092;8.542;2023-11-19T05:03:53;0.70;;;0.50;;
9892;SDS011;4985;49.092;8.542;2023-11-19T05:06:18;0.73;;;0.60;;
9892;SDS011;4985;49.092;8.542;2023-11-19T05:08:44;0.50;;;0.50;;
9892;SDS011;4985;49.092;8.542;2023-11-19T05:11:09;0.60;;;0.60;;
9892;SDS011;4985;49.092;8.542;2023-11-19T05:13:37;0.70;;;0.70;;
9892;SDS011;4985;49.092;8.542;2023-11-19T05:16:02;0.73;;;0.73;;
9892;SDS011;4985;49.092;8.542;2023-11-19T05:18:27;0.50;;;0.50;;
9892;SDS011;4985;49.092;8.542;2023-11-19T05:20:53;0.70;;;0.70;;
9892;SDS011;4985;49.092;8.542;2023-11-19T05:23:18;0.60;;;0.60;;
9892;SDS011;4985;49.092;8.542;2023-11-19T05:25:43;0.87;;;0.70;;
9892;SDS011;4985;49.092;8.542;2023-11-19T05:28:10;0.80;;;0.80;;
9892;SDS011;4985;49.092;8.542;2023-11-19T05:30:36;0.73;;;0.70;;
9892;SDS011;4985;49.092;8.542;2023-11-19T05:33:01;0.83;;;0.67;;
9892;SDS011;4985;49.092;8.542;2023-11-19T05:35:26;0.60;;;0.60;;
9892;SDS011;4985;49.092;8.542;2023-11-19T05:37:52;1.43;;;0.60;;
9892;SDS011;4985;49.092;8.542;2023-11-19T05:40:17;0.80;;;0.80;;
9892;SDS011;4985;49.092;8.542;2023-11-19T05:42:43;1.17;;;0.70;;
9892;SDS011;4985;49.092;8.542;2023-11-19T05:45:10;1.40;;;0.60;;
9892;SDS011;4985;49.092;8.542;2023-11-19T05:47:36;0.77;;;0.67;;
9892;SDS011;4985;49.092;8.542;2023-11-19T05:50:02;0.70;;;0.70;;
9892;SDS011;4985;49.092;8.542;2023-11-19T05:52:28;0.70;;;0.70;;
9892;SDS011;4985;49.092;8.542;2023-11-19T05:54:58;1.23;;;0.80;;
9892;SDS011;4985;49.092;8.542;2023-11-19T05:57:23;0.63;;;0.63;;
9892;SDS011;4985;49.092;8.542;2023-11-19T05:59:50;0.60;;;0.60;;
9892;SDS011;4985;49.092;8.542;2023-11-19T06:02:16;0.60;;;0.60;;
9892;SDS011;4985;49.092;8.542;2023-11-19T06:04:41;0.60;;;0.60;;
9892;SDS011;4985;49.092;8.542;2023-11-19T06:07:09;1.40;;;0.67;;
9892;SDS011;4985;49.092;8.542;2023-11-19T06:09:34;0.70;;;0.70;;
9892;SDS011;4985;49.092;8.542;2023-11-19T06:12:00;0.60;;;0.60;;
9892;SDS011;4985;49.092;8.542;2023-11-19T06:14:27;0.73;;;0.73;;
9892;SDS011;4985;49.092;8.542;2023-11-19T06:16:52;1.53;;;0.80;;
9892;SDS011;4985;49.092;8.542;2023-11-19T06:19:18;1.73;;;0.73;;
9892;SDS011;4985;49.092;8.542;2023-11-19T06:21:43;0.70;;;0.70;;
9892;SDS011;4985;49.092;8.542;2023-11-19T06:24:08;0.53;;;0.50;;
9892;SDS011;4985;49.092;8.542;2023-11-19T06:26:34;0.63;;;0.60;;
9892;SDS011;4985;49.092;8.542;2023-11-19T06:28:59;0.67;;;0.67;;
9892;SDS011;4985;49.092;8.542;2023-11-19T06:31:25;0.57;;;0.57;;
9892;SDS011;4985;49.092;8.542;2023-11-19T06:33:50;0.63;;;0.50;;
9892;SDS011;4985;49.092;8.542;2023-11-19T06:36:16;1.30;;;0.60;;
9892;SDS011;4985;49.092;8.542;2023-11-19T06:38:42;0.70;;;0.50;;
9892;SDS011;4985;49.092;8.542;2023-11-19T06:41:08;0.60;;;0.60;;
9892;SDS011;4985;49.092;8.542;2023-11-19T06:43:34;0.60;;;0.60;;
9892;SDS011;4985;49.092;8.542;2023-11-19T06:45:59;0.70;;;0.70;;
9892;SDS011;4985;49.092;8.542;2023-11-19T06:48:25;0.40;;;0.40;;
9892;SDS011;4985;49.092;8.542;2023-11-19T06:50:50;1.00;;;0.77;;
9892;SDS011;4985;49.092;8.542;2023-11-19T06:53:16;0.93;;;0.70;;
9892;SDS011;4985;49.092;8.542;2023-11-19T06:55:41;0.70;;;0.70;;
9892;SDS011;4985;49.092;8.542;2023-11-19T06:58:06;1.13;;;0.80;;
9892;SDS011;4985;49.092;8.542;2023-11-19T07:00:32;0.80;;;0.80;;
9892;SDS011;4985;49.092;8.542;2023-11-19T07:02:58;0.80;;;0.80;;
9892;SDS011;4985;49.092;8.542;2023-11-19T07:05:24;0.83;;;0.80;;
9892;SDS011;4985;49.092;8.542;2023-11-19T07:07:49;0.60;;;0.60;;
9892;SDS011;4985;49.092;8.542;2023-11-19T07:10:15;1.03;;;0.73;;
9892;SDS011;4985;49.092;8.542;2023-11-19T07:12:41;0.87;;;0.87;;
9892;SDS011;4985;49.092;8.542;2023-11-19T07:15:07;0.60;;;0.60;;
9892;SDS011;4985;49.092;8.542;2023-11-19T07:17:33;0.60;;;0.60;;
9892;SDS011;4985;49.092;8.542;2023-11-19T07:20:00;0.83;;;0.67;;
9892;SDS011;4985;49.092;8.542;2023-11-19T07:22:25;1.07;;;0.93;;
9892;SDS011;4985;49.092;8.542;2023-11-19T07:24:51;1.10;;;0.97;;
9892;SDS011;4985;49.092;8.542;2023-11-19T07:27:18;1.10;;;1.00;;
9892;SDS011;4985;49.092;8.542;2023-11-19T07:29:44;1.20;;;0.80;;
9892;SDS011;4985;49.092;8.542;2023-11-19T07:32:10;2.57;;;1.53;;
9892;SDS011;4985;49.092;8.542;2023-11-19T07:34:35;2.90;;;1.30;;
9892;SDS011;4985;49.092;8.542;2023-11-19T07:37:01;0.93;;;0.90;;
9892;SDS011;4985;49.092;8.542;2023-11-19T07:39:27;0.93;;;0.90;;
9892;SDS011;4985;49.092;8.542;2023-11-19T07:41:53;2.20;;;1.27;;
9892;SDS011;4985;49.092;8.542;2023-11-19T07:44:19;0.83;;;0.80;;
9892;SDS011;4985;49.092;8.542;2023-11-19T07:46:44;0.93;;;0.83;;
9892;SDS011;4985;49.092;8.542;2023-11-19T07:49:10;0.80;;;0.80;;
9892;SDS011;4985;49.092;8.542;2023-11-19T07:51:35;1.13;;;0.90;;
9892;SDS011;4985;49.092;8.542;2023-11-19T07:54:01;1.63;;;1.23;;
9892;SDS011;4985;49.092;8.542;2023-11-19T07:56:27;0.87;;;0.80;;
9892;SDS011;4985;49.092;8.542;2023-11-19T07:58:52;0.80;;;0.70;;
9892;SDS011;4985;49.092;8.542;2023-11-19T08:01:17;0.77;;;0.70;;
9892;SDS011;4985;49.092;8.542;2023-11-19T08:03:43;0.70;;;0.70;;
9892;SDS011;4985;49.092;8.542;2023-11-19T08:06:09;0.70;;;0.70;;
9892;SDS011;4985;49.092;8.542;2023-11-19T08:08:34;0.70;;;0.70;;
9892;SDS011;4985;49.092;8.542;2023-11-19T08:11:00;2.30;;;0.70;;
9892;SDS011;4985;49.092;8.542;2023-11-19T08:13:25;1.03;;;0.80;;
9892;SDS011;4985;49.092;8.542;2023-11-19T08:15:51;0.73;;;0.70;;
9892;SDS011;4985;49.092;8.542;2023-11-19T08:18:17;1.17;;;0.80;;
9892;SDS011;4985;49.092;8.542;2023-11-19T08:20:43;1.40;;;0.80;;
9892;SDS011;4985;49.092;8.542;2023-11-19T08:23:09;0.80;;;0.80;;
9892;SDS011;4985;49.092;8.542;2023-11-19T08:25:35;1.23;;;0.77;;
9892;SDS011;4985;49.092;8.542;2023-11-19T08:28:00;1.13;;;0.80;;
9892;SDS011;4985;49.092;8.542;2023-11-19T08:30:26;2.13;;;0.90;;
9892;SDS011;4985;49.092;8.542;2023-11-19T08:32:52;1.50;;;0.70;;
9892;SDS011;4985;49.092;8.542;2023-11-19T08:35:17;0.80;;;0.70;;
9892;SDS011;4985;49.092;8.542;2023-11-19T08:37:42;1.13;;;0.90;;
9892;SDS011;4985;49.092;8.542;2023-11-19T08:40:08;0.80;;;0.80;;
9892;SDS011;4985;49.092;8.542;2023-11-19T08:42:34;1.50;;;0.87;;
9892;SDS011;4985;49.092;8.542;2023-11-19T08:45:00;5.10;;;0.77;;
9892;SDS011;4985;49.092;8.542;2023-11-19T08:47:25;2.57;;;0.80;;
9892;SDS011;4985;49.092;8.542;2023-11-19T08:49:51;1.27;;;0.90;;
9892;SDS011;4985;49.092;8.542;2023-11-19T08:52:17;1.00;;;0.80;;
9892;SDS011;4985;49.092;8.542;2023-11-19T08:54:42;0.87;;;0.77;;
9892;SDS011;4985;49.092;8.542;2023-11-19T08:57:08;0.87;;;0.87;;
9892;SDS011;4985;49.092;8.542;2023-11-19T08:59:34;0.90;;;0.80;;
9892;SDS011;4985;49.092;8.542;2023-11-19T09:02:00;1.37;;;1.00;;
9892;SDS011;4985;49.092;8.542;2023-11-19T09:04:25;1.20;;;1.10;;
9892;SDS011;4985;49.092;8.542;2023-11-19T09:06:50;2.87;;;1.17;;
9892;SDS011;4985;49.092;8.542;2023-11-19T09:09:16;1.27;;;0.90;;
9892;SDS011;4985;49.092;8.542;2023-11-19T09:11:41;2.10;;;1.20;;
9892;SDS011;4985;49.092;8.542;2023-11-19T09:14:07;1.20;;;1.10;;
9892;SDS011;4985;49.092;8.542;2023-11-19T09:16:33;1.43;;;1.00;;
9892;SDS011;4985;49.092;8.542;2023-11-19T09:18:58;2.30;;;0.90;;
9892;SDS011;4985;49.092;8.542;2023-11-19T09:21:24;0.93;;;0.93;;
9892;SDS011;4985;49.092;8.542;2023-11-19T09:23:50;1.20;;;1.10;;
9892;SDS011;4985;49.092;8.542;2023-11-19T09:26:16;0.73;;;0.73;;
9892;SDS011;4985;49.092;8.542;2023-11-19T09:28:41;1.03;;;0.80;;
9892;SDS011;4985;49.092;8.542;2023-11-19T09:31:13;1.53;;;0.90;;
9892;SDS011;4985;49.092;8.542;2023-11-19T09:33:42;1.13;;;0.80;;
9892;SDS011;4985;49.092;8.542;2023-11-19T09:36:08;0.77;;;0.77;;
9892;SDS011;4985;49.092;8.542;2023-11-19T09:38:33;0.80;;;0.70;;
9892;SDS011;4985;49.092;8.542;2023-11-19T09:41:03;1.43;;;0.83;;
9892;SDS011;4985;49.092;8.542;2023-11-19T09:43:33;2.00;;;1.17;;
9892;SDS011;4985;49.092;8.542;2023-11-19T09:45:59;5.00;;;1.30;;
9892;SDS011;4985;49.092;8.542;2023-11-19T09:48:30;0.97;;;0.63;;
9892;SDS011;4985;49.092;8.542;2023-11-19T09:50:57;1.27;;;0.63;;
9892;SDS011;4985;49.092;8.542;2023-11-19T09:53:24;1.10;;;1.00;;
9892;SDS011;4985;49.092;8.542;2023-11-19T09:55:49;1.30;;;1.07;;
9892;SDS011;4985;49.092;8.542;2023-11-19T09:58:16;1.93;;;0.80;;
9892;SDS011;4985;49.092;8.542;2023-11-19T10:00:42;2.50;;;1.00;;
9892;SDS011;4985;49.092;8.542;2023-11-19T10:03:08;1.50;;;1.20;;
9892;SDS011;4985;49.092;8.542;2023-11-19T10:05:37;1.80;;;1.00;;
9892;SDS011;4985;49.092;8.542;2023-11-19T10:08:04;1.33;;;1.00;;
9892;SDS011;4985;49.092;8.542;2023-11-19T10:10:29;2.27;;;1.03;;
9892;SDS011;4985;49.092;8.542;2023-11-19T10:12:55;2.87;;;1.00;;
9892;SDS011;4985;49.092;8.542;2023-11-19T10:15:21;1.87;;;1.10;;
9892;SDS011;4985;49.092;8.542;2023-11-19T10:17:48;2.10;;;1.07;;
9892;SDS011;4985;49.092;8.542;2023-11-19T10:20:13;2.03;;;1.00;;
9892;SDS011;4985;49.092;8.542;2023-11-19T10:22:39;1.33;;;0.90;;
9892;SDS011;4985;49.092;8.542;2023-11-19T10:25:05;1.20;;;0.80;;
9892;SDS011;4985;49.092;8.542;2023-11-19T10:27:46;1.00;;;0.90;;
9892;SDS011;4985;49.092;8.542;2023-11-19T10:30:12;3.03;;;0.97;;
9892;SDS011;4985;49.092;8.542;2023-11-19T10:32:38;1.17;;;1.00;;
9892;SDS011;4985;49.092;8.542;2023-11-19T10:35:06;0.80;;;0.80;;
9892;SDS011;4985;49.092;8.542;2023-11-19T10:37:32;0.70;;;0.70;;
9892;SDS011;4985;49.092;8.542;2023-11-19T10:40:00;3.87;;;1.20;;
9892;SDS011;4985;49.092;8.542;2023-11-19T10:42:25;1.07;;;0.97;;
9892;SDS011;4985;49.092;8.542;2023-11-19T10:44:51;3.27;;;1.17;;
9892;SDS011;4985;49.092;8.542;2023-11-19T10:47:18;2.30;;;1.20;;
9892;SDS011;4985;49.092;8.542;2023-11-19T10:49:44;1.30;;;1.10;;
9892;SDS011;4985;49.092;8.542;2023-11-19T10:52:14;2.93;;;1.17;;
9892;SDS011;4985;49.092;8.542;2023-11-19T10:54:44;2.77;;;1.70;;
9892;SDS011;4985;49.092;8.542;2023-11-19T10:57:14;3.67;;;1.33;;
9892;SDS011;4985;49.092;8.542;2023-11-19T10:59:44;1.87;;;1.27;;
9892;SDS011;4985;49.092;8.542;2023-11-19T11:02:11;2.53;;;1.20;;
9892;SDS011;4985;49.092;8.542;2023-11-19T11:04:44;1.83;;;1.17;;
9892;SDS011;4985;49.092;8.542;2023-11-19T11:07:12;1.83;;;1.10;;
9892;SDS011;4985;49.092;8.542;2023-11-19T11:09:41;2.43;;;1.20;;
9892;SDS011;4985;49.092;8.542;2023-11-19T11:12:06;1.97;;;1.30;;
9892;SDS011;4985;49.092;8.542;2023-11-19T11:14:35;2.47;;;1.10;;
9892;SDS011;4985;49.092;8.542;2023-11-19T11:17:03;3.10;;;1.03;;
9892;SDS011;4985;49.092;8.542;2023-11-19T11:19:29;2.27;;;1.30;;
9892;SDS011;4985;49.092;8.542;2023-11-19T11:21:54;1.20;;;1.10;;
9892;SDS011;4985;49.092;8.542;2023-11-19T11:38:28;1.17;;;1.07;;
9892;SDS011;4985;49.092;8.542;2023-11-19T11:43:52;2.67;;;1.03;;
9892;SDS011;4985;49.092;8.542;2023-11-19T11:54:08;2.50;;;1.07;;
9892;SDS011;4985;49.092;8.542;2023-11-19T12:02:07;1.70;;;1.10;;
9892;SDS011;4985;49.092;8.542;2023-11-19T12:04:37;1.33;;;1.20;;
9892;SDS011;4985;49.092;8.542;2023-11-19T12:07:04;2.73;;;1.37;;
9892;SDS011;4985;49.092;8.542;2023-11-19T12:10:06;3.17;;;1.10;;
9892;SDS011;4985;49.092;8.542;2023-11-19T12:12:33;1.23;;;1.13;;
9892;SDS011;4985;49.092;8.542;2023-11-19T12:20:01;2.30;;;1.27;;
9892;SDS011;4985;49.092;8.542;2023-11-19T12:22:28;1.23;;;1.07;;
9892;SDS011;4985;49.092;8.542;2023-11-19T12:24:54;1.57;;;1.30;;
9892;SDS011;4985;49.092;8.542;2023-11-19T12:27:19;1.13;;;0.87;;
9892;SDS011;4985;49.092;8.542;2023-11-19T12:29:47;1.93;;;1.00;;
9892;SDS011;4985;49.092;8.542;2023-11-19T12:32:13;1.60;;;0.97;;
9892;SDS011;4985;49.092;8.542;2023-11-19T12:34:38;1.27;;;1.03;;
9892;SDS011;4985;49.092;8.542;2023-11-19T12:37:04;1.90;;;1.47;;
9892;SDS011;4985;49.092;8.542;2023-11-19T12:39:30;2.07;;;1.20;;
9892;SDS011;4985;49.092;8.542;2023-11-19T12:41:56;3.00;;;1.50;;
9892;SDS011;4985;49.092;8.542;2023-11-19T12:44:24;2.43;;;1.30;;
9892;SDS011;4985;49.092;8.542;2023-11-19T12:47:06;5.50;;;1.30;;
9892;SDS011;4985;49.092;8.542;2023-11-19T12:49:34;2.13;;;1.13;;
9892;SDS011;4985;49.092;8.542;2023-11-19T12:52:00;2.60;;;1.40;;
9892;SDS011;4985;49.092;8.542;2023-11-19T12:54:33;1.57;;;1.07;;
9892;SDS011;4985;49.092;8.542;2023-11-19T12:56:59;1.70;;;1.30;;
9892;SDS011;4985;49.092;8.542;2023-11-19T12:59:24;1.93;;;1.13;;
9892;SDS011;4985;49.092;8.542;2023-11-19T13:01:56;3.10;;;1.67;;
9892;SDS011;4985;49.092;8.542;2023-11-19T13:04:28;3.27;;;1.30;;
9892;SDS011;4985;49.092;8.542;2023-11-19T13:06:56;3.63;;;1.00;;
9892;SDS011;4985;49.092;8.542;2023-11-19T13:09:27;2.20;;;1.23;;
9892;SDS011;4985;49.092;8.542;2023-11-19T13:11:54;3.20;;;1.30;;
9892;SDS011;4985;49.092;8.542;2023-11-19T13:14:21;2.97;;;1.50;;
9892;SDS011;4985;49.092;8.542;2023-11-19T13:16:48;0.83;;;0.80;;
9892;SDS011;4985;49.092;8.542;2023-11-19T13:19:14;2.43;;;1.03;;
9892;SDS011;4985;49.092;8.542;2023-11-19T13:21:41;1.93;;;1.10;;
9892;SDS011;4985;49.092;8.542;2023-11-19T13:24:07;1.57;;;1.10;;
9892;SDS011;4985;49.092;8.542;2023-11-19T13:26:32;1.30;;;1.00;;
9892;SDS011;4985;49.092;8.542;2023-11-19T13:28:58;2.43;;;1.20;;
9892;SDS011;4985;49.092;8.542;2023-11-19T13:31:23;1.70;;;1.10;;
9892;SDS011;4985;49.092;8.542;2023-11-19T13:33:49;3.07;;;1.23;;
9892;SDS011;4985;49.092;8.542;2023-11-19T13:36:14;3.77;;;1.30;;
9892;SDS011;4985;49.092;8.542;2023-11-19T13:38:40;2.20;;;1.17;;
9892;SDS011;4985;49.092;8.542;2023-11-19T13:41:09;1.83;;;1.03;;
9892;SDS011;4985;49.092;8.542;2023-11-19T13:43:36;2.23;;;1.30;;
9892;SDS011;4985;49.092;8.542;2023-11-19T13:46:02;1.17;;;0.97;;
9892;SDS011;4985;49.092;8.542;2023-11-19T13:48:27;1.93;;;1.30;;
9892;SDS011;4985;49.092;8.542;2023-11-19T13:50:54;2.57;;;1.27;;
9892;SDS011;4985;49.092;8.542;2023-11-19T13:53:21;4.43;;;1.60;;
9892;SDS011;4985;49.092;8.542;2023-11-19T13:55:48;2.13;;;1.10;;
9892;SDS011;4985;49.092;8.542;2023-11-19T13:58:14;2.83;;;1.10;;
9892;SDS011;4985;49.092;8.542;2023-11-19T14:00:39;0.97;;;0.70;;
9892;SDS011;4985;49.092;8.542;2023-11-19T14:03:07;2.00;;;0.80;;
9892;SDS011;4985;49.092;8.542;2023-11-19T14:05:32;3.17;;;1.20;;
9892;SDS011;4985;49.092;8.542;2023-11-19T14:07:57;2.13;;;1.20;;
9892;SDS011;4985;49.092;8.542;2023-11-19T14:10:23;2.23;;;1.20;;
9892;SDS011;4985;49.092;8.542;2023-11-19T14:12:48;1.10;;;1.00;;
9892;SDS011;4985;49.092;8.542;2023-11-19T14:15:15;1.73;;;1.37;;
9892;SDS011;4985;49.092;8.542;2023-11-19T14:17:42;2.93;;;1.27;;
9892;SDS011;4985;49.092;8.542;2023-11-19T14:20:08;2.47;;;1.10;;
9892;SDS011;4985;49.092;8.542;2023-11-19T14:22:43;1.40;;;1.27;;
9892;SDS011;4985;49.092;8.542;2023-11-19T14:25:11;2.03;;;1.27;;
9892;SDS011;4985;49.092;8.542;2023-11-19T14:27:37;3.37;;;2.00;;
9892;SDS011;4985;49.092;8.542;2023-11-19T14:30:04;2.43;;;1.10;;
9892;SDS011;4985;49.092;8.542;2023-11-19T14:32:30;3.83;;;1.23;;
9892;SDS011;4985;49.092;8.542;2023-11-19T14:34:56;2.40;;;1.20;;
9892;SDS011;4985;49.092;8.542;2023-11-19T14:37:21;2.17;;;1.20;;
9892;SDS011;4985;49.092;8.542;2023-11-19T14:39:46;2.63;;;1.33;;
9892;SDS011;4985;49.092;8.542;2023-11-19T14:42:12;2.33;;;1.10;;
9892;SDS011;4985;49.092;8.542;2023-11-19T14:44:38;3.73;;;2.30;;
9892;SDS011;4985;49.092;8.542;2023-11-19T14:47:04;1.90;;;1.00;;
9892;SDS011;4985;49.092;8.542;2023-11-19T14:49:30;2.17;;;1.30;;
9892;SDS011;4985;49.092;8.542;2023-11-19T14:51:55;5.57;;;1.53;;
9892;SDS011;4985;49.092;8.542;2023-11-19T14:54:20;2.07;;;1.10;;
9892;SDS011;4985;49.092;8.542;2023-11-19T14:56:46;2.00;;;1.30;;
9892;SDS011;4985;49.092;8.542;2023-11-19T14:59:11;1.83;;;1.10;;
9892;SDS011;4985;49.092;8.542;2023-11-19T15:01:36;1.37;;;1.10;;
9892;SDS011;4985;49.092;8.542;2023-11-19T15:04:01;2.80;;;1.23;;
9892;SDS011;4985;49.092;8.542;2023-11-19T15:06:27;3.77;;;1.30;;
9892;SDS011;4985;49.092;8.542;2023-11-19T15:08:53;4.17;;;1.33;;
9892;SDS011;4985;49.092;8.542;2023-11-19T15:11:19;1.70;;;1.33;;
9892;SDS011;4985;49.092;8.542;2023-11-19T15:13:46;2.27;;;0.90;;
9892;SDS011;4985;49.092;8.542;2023-11-19T15:16:13;1.77;;;1.20;;
9892;SDS011;4985;49.092;8.542;2023-11-19T15:18:39;2.00;;;1.13;;
9892;SDS011;4985;49.092;8.542;2023-11-19T15:21:06;3.03;;;1.30;;
9892;SDS011;4985;49.092;8.542;2023-11-19T15:23:33;1.37;;;0.97;;
9892;SDS011;4985;49.092;8.542;2023-11-19T15:25:58;1.60;;;0.90;;
9892;SDS011;4985;49.092;8.542;2023-11-19T15:28:24;2.20;;;1.37;;
9892;SDS011;4985;49.092;8.542;2023-11-19T15:30:49;2.17;;;1.00;;
9892;SDS011;4985;49.092;8.542;2023-11-19T15:33:14;1.97;;;1.20;;
9892;SDS011;4985;49.092;8.542;2023-11-19T15:35:40;1.80;;;0.93;;
9892;SDS011;4985;49.092;8.542;2023-11-19T15:38:05;1.53;;;0.90;;
9892;SDS011;4985;49.092;8.542;2023-11-19T15:40:34;1.93;;;1.17;;
9892;SDS011;4985;49.092;8.542;2023-11-19T15:42:59;1.90;;;1.40;;
9892;SDS011;4985;49.092;8.542;2023-11-19T15:45:26;2.00;;;1.23;;